createdAt,value
2017-12-28T00:00:18.899Z,11.8
2017-12-28T00:01:21.387Z,11.7
2017-12-28T00:02:23.939Z,11.7
2017-12-28T00:03:31.242Z,11.7
2017-12-28T00:04:34.112Z,11.6
2017-12-28T00:05:36.647Z,11.6
2017-12-28T00:06:39.063Z,11.5
2017-12-28T00:07:41.589Z,11.7
2017-12-28T00:08:44.107Z,11.6
2017-12-28T00:09:46.739Z,11.5
2017-12-28T00:10:49.166Z,11.4
2017-12-28T00:11:51.902Z,11.3
2017-12-28T00:12:54.525Z,11.4
2017-12-28T00:13:56.889Z,11.5
2017-12-28T00:14:59.282Z,11.4
2017-12-28T00:16:01.773Z,11.3
2017-12-28T00:17:04.277Z,11.3
2017-12-28T00:18:06.923Z,11.2
2017-12-28T00:19:09.435Z,11.2
2017-12-28T00:20:11.880Z,11.2
2017-12-28T00:21:14.288Z,11.1
2017-12-28T00:22:16.715Z,11.1
2017-12-28T00:23:19.179Z,11.1
2017-12-28T00:24:21.733Z,11
2017-12-28T00:25:24.315Z,11
2017-12-28T00:26:37.349Z,11
2017-12-28T00:27:39.871Z,10.9
2017-12-28T00:28:42.755Z,11
2017-12-28T00:29:45.423Z,10.9
2017-12-28T00:30:47.876Z,10.9
2017-12-28T00:31:50.427Z,10.9
2017-12-28T00:32:52.890Z,10.9
2017-12-28T00:33:55.328Z,10.7
2017-12-28T00:34:57.799Z,10.8
2017-12-28T00:36:00.214Z,10.8
2017-12-28T00:37:02.688Z,10.9
2017-12-28T00:38:05.182Z,10.9
2017-12-28T00:39:07.602Z,10.8
2017-12-28T00:40:10.051Z,10.8
2017-12-28T00:41:12.511Z,11
2017-12-28T00:42:15.052Z,10.8
2017-12-28T00:43:17.455Z,10.8
2017-12-28T00:44:19.894Z,10.7
2017-12-28T00:45:22.370Z,10.7
2017-12-28T00:46:24.844Z,10.8
2017-12-28T00:47:27.311Z,10.8
2017-12-28T00:48:29.832Z,10.8
2017-12-28T00:49:32.460Z,10.7
2017-12-28T00:50:34.896Z,10.7
2017-12-28T00:51:37.363Z,10.7
2017-12-28T00:52:39.814Z,10.7
2017-12-28T00:53:42.371Z,10.9
2017-12-28T00:54:44.788Z,10.9
2017-12-28T00:55:47.244Z,10.7
2017-12-28T00:56:49.686Z,10.8
2017-12-28T00:57:55.549Z,10.6
2017-12-28T00:58:58.077Z,10.6
2017-12-28T01:00:00.777Z,10.6
2017-12-28T01:01:03.309Z,10.6
2017-12-28T01:02:05.967Z,10.7
2017-12-28T01:03:08.474Z,10.7
2017-12-28T01:04:10.994Z,10.7
2017-12-28T01:05:13.424Z,10.7
2017-12-28T01:06:15.938Z,10.6
2017-12-28T01:07:18.640Z,10.6
2017-12-28T01:08:21.224Z,10.7
2017-12-28T01:09:23.650Z,10.7
2017-12-28T01:10:26.078Z,10.7
2017-12-28T01:11:28.492Z,10.7
2017-12-28T01:12:31.099Z,10.6
2017-12-28T01:13:33.688Z,10.6
2017-12-28T01:14:36.151Z,10.6
2017-12-28T01:15:38.625Z,10.7
2017-12-28T01:16:41.051Z,10.7
2017-12-28T01:17:43.515Z,10.5
2017-12-28T01:18:45.917Z,10.5
2017-12-28T01:19:48.408Z,10.6
2017-12-28T01:20:50.955Z,10.6
2017-12-28T01:21:53.372Z,10.5
2017-12-28T01:22:55.854Z,10.6
2017-12-28T01:23:58.279Z,10.5
2017-12-28T01:25:00.752Z,10.4
2017-12-28T01:26:03.382Z,10.5
2017-12-28T01:27:10.180Z,10.6
2017-12-28T01:28:12.721Z,10.5
2017-12-28T01:29:15.295Z,10.5
2017-12-28T01:30:17.795Z,10.4
2017-12-28T01:31:20.257Z,10.3
2017-12-28T01:32:22.702Z,10.4
2017-12-28T01:33:25.181Z,10.4
2017-12-28T01:34:27.729Z,10.4
2017-12-28T01:35:30.206Z,10.4
2017-12-28T01:36:32.681Z,10.3
2017-12-28T01:37:35.490Z,10.4
2017-12-28T01:38:37.952Z,10.4
2017-12-28T01:39:40.510Z,10.4
2017-12-28T01:40:42.954Z,10.3
2017-12-28T01:41:45.413Z,10.3
2017-12-28T01:42:47.838Z,10.3
2017-12-28T01:43:50.233Z,10.2
2017-12-28T01:44:52.697Z,10.3
2017-12-28T01:45:55.161Z,10.2
2017-12-28T01:46:58.247Z,10.1
2017-12-28T01:48:05.020Z,10
2017-12-28T01:49:07.514Z,10.1
2017-12-28T01:50:09.943Z,10
2017-12-28T01:51:12.439Z,10.1
2017-12-28T01:52:14.926Z,10
2017-12-28T01:53:22.229Z,10
2017-12-28T01:54:24.705Z,10
2017-12-28T01:55:27.148Z,10
2017-12-28T01:56:29.599Z,10
2017-12-28T01:57:32.181Z,10
2017-12-28T01:58:34.739Z,10
2017-12-28T01:59:37.380Z,9.9
2017-12-28T02:00:40.641Z,10.1
2017-12-28T02:01:43.212Z,10.1
2017-12-28T02:02:45.973Z,10.2
2017-12-28T02:03:48.715Z,10.3
2017-12-28T02:04:51.384Z,10.7
2017-12-28T02:05:53.983Z,10.6
2017-12-28T02:06:56.399Z,11
2017-12-28T02:07:58.855Z,11.1
2017-12-28T02:09:01.353Z,11.6
2017-12-28T02:10:03.771Z,11.6
2017-12-28T02:11:06.241Z,11.9
2017-12-28T02:12:08.689Z,11.8
2017-12-28T02:13:11.156Z,11.8
2017-12-28T02:14:13.613Z,12
2017-12-28T02:15:16.039Z,11.6
2017-12-28T02:16:19.534Z,11.2
2017-12-28T02:17:22.006Z,11.1
2017-12-28T02:18:24.419Z,11.2
2017-12-28T02:19:26.829Z,11.6
2017-12-28T02:20:29.324Z,11.2
2017-12-28T02:21:31.895Z,10.9
2017-12-28T02:22:34.371Z,11.1
2017-12-28T02:23:36.774Z,11.1
2017-12-28T02:24:39.198Z,11.1
2017-12-28T02:25:41.628Z,10.9
2017-12-28T02:26:44.107Z,10.9
2017-12-28T02:27:46.506Z,10.9
2017-12-28T02:28:49.113Z,10.7
2017-12-28T02:29:51.515Z,11.2
2017-12-28T02:30:54.019Z,11
2017-12-28T02:31:56.462Z,11.2
2017-12-28T02:32:58.990Z,10.8
2017-12-28T02:34:01.429Z,11
2017-12-28T02:35:03.920Z,10.9
2017-12-28T02:36:06.307Z,11.1
2017-12-28T02:37:08.746Z,11.5
2017-12-28T02:38:11.201Z,11.2
2017-12-28T02:39:13.638Z,11
2017-12-28T02:40:16.128Z,11
2017-12-28T02:41:18.765Z,10.9
2017-12-28T02:42:21.240Z,10.5
2017-12-28T02:43:23.758Z,10.5
2017-12-28T02:44:26.252Z,10.7
2017-12-28T02:45:28.680Z,10.8
2017-12-28T02:46:31.091Z,10.8
2017-12-28T02:47:33.566Z,11.1
2017-12-28T02:48:36.078Z,11.3
2017-12-28T02:49:39.026Z,11.5
2017-12-28T02:50:44.420Z,11.6
2017-12-28T02:51:47.753Z,11.9
2017-12-28T02:52:50.315Z,11.6
2017-12-28T02:53:52.969Z,11.7
2017-12-28T02:54:55.619Z,11.4
2017-12-28T02:55:58.206Z,11.6
2017-12-28T02:57:00.688Z,11.9
2017-12-28T02:58:03.179Z,11.8
2017-12-28T02:59:05.651Z,11.9
2017-12-28T03:00:08.274Z,12
2017-12-28T03:01:10.936Z,11.9
2017-12-28T03:02:13.394Z,12.1
2017-12-28T03:03:15.851Z,11.9
2017-12-28T03:04:18.255Z,11.6
2017-12-28T03:05:20.937Z,11.7
2017-12-28T03:06:26.081Z,11.6
2017-12-28T03:07:28.623Z,11.8
2017-12-28T03:08:31.270Z,11.9
2017-12-28T03:09:33.715Z,11.6
2017-12-28T03:10:36.141Z,11.5
2017-12-28T03:11:38.606Z,11.7
2017-12-28T03:12:41.099Z,11.8
2017-12-28T03:13:43.578Z,11.8
2017-12-28T03:14:46.031Z,11.7
2017-12-28T03:15:48.475Z,11.9
2017-12-28T03:16:51.071Z,11.9
2017-12-28T03:17:55.261Z,11.8
2017-12-28T03:18:57.881Z,11.7
2017-12-28T03:20:00.376Z,11.4
2017-12-28T03:21:03.026Z,11.5
2017-12-28T03:22:06.815Z,11.9
2017-12-28T03:23:09.356Z,11.7
2017-12-28T03:24:11.940Z,11.5
2017-12-28T03:25:14.518Z,11.4
2017-12-28T03:26:17.083Z,11.4
2017-12-28T03:27:24.471Z,11.3
2017-12-28T03:28:27.061Z,11.1
2017-12-28T03:29:29.577Z,10.9
2017-12-28T03:30:32.150Z,10.8
2017-12-28T03:31:34.710Z,10.6
2017-12-28T03:32:37.428Z,10.6
2017-12-28T03:33:40.650Z,10.6
2017-12-28T03:34:43.325Z,10.7
2017-12-28T03:35:46.087Z,10.4
2017-12-28T03:36:48.756Z,10.1
2017-12-28T03:38:58.736Z,10
2017-12-28T03:40:01.305Z,9.9
2017-12-28T03:41:03.865Z,9.9
2017-12-28T03:42:06.785Z,10
2017-12-28T03:43:10.157Z,10.1
2017-12-28T03:44:13.472Z,10.2
2017-12-28T03:45:15.946Z,10.2
2017-12-28T03:46:24.841Z,9.9
2017-12-28T03:47:29.095Z,9.7
2017-12-28T03:48:31.767Z,9.7
2017-12-28T03:49:34.542Z,9.6
2017-12-28T03:50:37.051Z,9.5
2017-12-28T03:51:39.428Z,9.5
2017-12-28T03:52:41.930Z,9.9
2017-12-28T03:53:44.321Z,9.8
2017-12-28T03:54:46.747Z,9.7
2017-12-28T03:55:49.145Z,9.5
2017-12-28T03:56:51.617Z,9.4
2017-12-28T03:57:54.121Z,9.5
2017-12-28T03:58:56.613Z,9.8
2017-12-28T03:59:59.067Z,9.7
2017-12-28T04:01:01.540Z,9.4
2017-12-28T04:02:03.969Z,9.4
2017-12-28T04:03:06.502Z,9.8
2017-12-28T04:04:09.116Z,9.7
2017-12-28T04:05:11.644Z,9.9
2017-12-28T04:06:14.032Z,9.8
2017-12-28T04:07:16.546Z,9.6
2017-12-28T04:08:19.027Z,9.5
2017-12-28T04:09:21.491Z,9.8
2017-12-28T04:10:23.999Z,9.6
2017-12-28T04:11:26.485Z,9.7
2017-12-28T04:12:28.970Z,9.7
2017-12-28T04:13:31.539Z,9.9
2017-12-28T04:14:34.101Z,9.5
2017-12-28T04:15:36.636Z,9.5
2017-12-28T04:16:39.100Z,9.6
2017-12-28T04:17:41.735Z,9.6
2017-12-28T04:18:44.824Z,9.6
2017-12-28T04:19:47.491Z,10
2017-12-28T04:20:50.032Z,9.7
2017-12-28T04:21:52.659Z,9.8
2017-12-28T04:22:55.158Z,9.6
2017-12-28T04:23:57.700Z,9.4
2017-12-28T04:25:00.139Z,9.5
2017-12-28T04:26:02.675Z,9.5
2017-12-28T04:27:05.118Z,9.4
2017-12-28T04:28:10.739Z,9.6
2017-12-28T04:29:13.286Z,9.4
2017-12-28T04:30:15.867Z,9.5
2017-12-28T04:31:18.327Z,9.2
2017-12-28T04:32:20.771Z,9.3
2017-12-28T04:33:26.298Z,9.2
2017-12-28T04:34:28.886Z,9.1
2017-12-28T04:35:31.433Z,9.1
2017-12-28T04:36:33.853Z,9.4
2017-12-28T04:37:36.344Z,9.6
2017-12-28T04:38:38.850Z,9.5
2017-12-28T04:39:41.397Z,9.7
2017-12-28T04:40:43.796Z,10
2017-12-28T04:41:46.194Z,9.7
2017-12-28T04:42:48.670Z,9.8
2017-12-28T04:43:51.241Z,9.3
2017-12-28T04:44:53.691Z,9.2
2017-12-28T04:45:56.139Z,9.2
2017-12-28T04:46:58.569Z,9.6
2017-12-28T04:48:01.046Z,9.6
2017-12-28T04:49:03.583Z,10
2017-12-28T04:50:06.035Z,9.9
2017-12-28T04:51:08.474Z,9.8
2017-12-28T04:52:10.885Z,9.7
2017-12-28T04:53:13.286Z,9.8
2017-12-28T04:54:15.803Z,9.8
2017-12-28T04:55:18.286Z,9.8
2017-12-28T04:56:20.829Z,9.9
2017-12-28T04:57:23.356Z,9.9
2017-12-28T04:58:25.766Z,9.8
2017-12-28T04:59:28.430Z,9.8
2017-12-28T05:00:30.819Z,9.3
2017-12-28T05:01:33.288Z,9.1
2017-12-28T05:02:35.771Z,9.4
2017-12-28T05:03:38.167Z,9.1
2017-12-28T05:04:40.648Z,9.1
2017-12-28T05:05:43.131Z,9.1
2017-12-28T05:06:45.636Z,9.5
2017-12-28T05:07:48.115Z,9.4
2017-12-28T05:08:50.643Z,9.9
2017-12-28T05:09:53.115Z,9.7
2017-12-28T05:10:55.555Z,9.9
2017-12-28T05:11:57.959Z,9.9
2017-12-28T05:13:05.490Z,9.8
2017-12-28T05:14:07.859Z,9.3
2017-12-28T05:15:10.275Z,9.7
2017-12-28T05:16:12.902Z,9.6
2017-12-28T05:17:21.519Z,9.5
2017-12-28T05:18:24.050Z,9.7
2017-12-28T05:19:26.495Z,9.4
2017-12-28T05:20:28.947Z,9.1
2017-12-28T05:21:31.453Z,9.6
2017-12-28T05:22:33.897Z,9.6
2017-12-28T05:23:36.324Z,9.7
2017-12-28T05:24:38.775Z,10
2017-12-28T05:25:41.357Z,10.3
2017-12-28T05:26:44.939Z,10.3
2017-12-28T05:27:48.533Z,10
2017-12-28T05:28:52.111Z,9.8
2017-12-28T05:29:54.630Z,9.9
2017-12-28T05:30:57.430Z,10.1
2017-12-28T05:31:59.965Z,9.8
2017-12-28T05:33:02.455Z,10.2
2017-12-28T05:34:05.626Z,9.9
2017-12-28T05:35:09.188Z,9.8
2017-12-28T05:36:11.693Z,9.8
2017-12-28T05:37:14.343Z,9.6
2017-12-28T05:38:17.154Z,9.7
2017-12-28T05:39:19.634Z,9.9
2017-12-28T05:40:22.125Z,10.1
2017-12-28T05:41:24.681Z,9.6
2017-12-28T05:42:27.125Z,10
2017-12-28T05:43:29.541Z,9.6
2017-12-28T05:44:31.996Z,9.9
2017-12-28T05:45:34.450Z,9.9
2017-12-28T05:46:36.867Z,10
2017-12-28T05:47:39.364Z,10
2017-12-28T05:48:41.813Z,10
2017-12-28T05:49:44.249Z,9.9
2017-12-28T05:50:46.614Z,10.1
2017-12-28T05:51:49.003Z,10.3
2017-12-28T05:52:51.424Z,10.4
2017-12-28T05:53:53.830Z,10.3
2017-12-28T05:54:56.311Z,10.3
2017-12-28T05:55:58.693Z,10.2
2017-12-28T05:57:01.166Z,10.2
2017-12-28T05:58:03.647Z,10.2
2017-12-28T05:59:06.141Z,10.1
2017-12-28T06:00:08.617Z,10.1
2017-12-28T06:01:11.082Z,9.9
2017-12-28T06:02:13.598Z,9.9
2017-12-28T06:03:16.001Z,9.4
2017-12-28T06:04:18.398Z,9.7
2017-12-28T06:05:20.805Z,9.7
2017-12-28T06:06:23.267Z,10
2017-12-28T06:07:25.661Z,10.1
2017-12-28T06:08:30.655Z,9.9
2017-12-28T06:09:34.168Z,10.1
2017-12-28T06:10:36.592Z,9.9
2017-12-28T06:11:39.018Z,10
2017-12-28T06:12:41.493Z,9.6
2017-12-28T06:13:44.022Z,9.6
2017-12-28T06:14:46.617Z,9.7
2017-12-28T06:15:49.079Z,9.5
2017-12-28T06:16:51.797Z,9.6
2017-12-28T06:17:55.871Z,9.6
2017-12-28T06:18:59.116Z,9.7
2017-12-28T06:20:01.769Z,9.8
2017-12-28T06:21:04.440Z,9.9
2017-12-28T06:22:07.245Z,10.1
2017-12-28T06:23:09.960Z,9.8
2017-12-28T06:24:12.462Z,9.8
2017-12-28T06:25:15.011Z,9.9
2017-12-28T06:26:17.674Z,9.6
2017-12-28T06:27:20.252Z,9.8
2017-12-28T06:28:23.082Z,9.7
2017-12-28T06:29:29.164Z,9.7
2017-12-28T06:30:31.682Z,9.8
2017-12-28T06:31:34.965Z,9.6
2017-12-28T06:32:41.320Z,9.6
2017-12-28T06:33:45.812Z,9.2
2017-12-28T06:34:48.904Z,9.4
2017-12-28T06:35:51.372Z,9.7
2017-12-28T06:36:53.798Z,9.9
2017-12-28T06:37:56.315Z,9.8
2017-12-28T06:38:58.818Z,9.8
2017-12-28T06:40:01.326Z,9.8
2017-12-28T06:41:03.885Z,9.9
2017-12-28T06:42:06.478Z,9.7
2017-12-28T06:43:08.996Z,9.8
2017-12-28T06:44:11.455Z,9.9
2017-12-28T06:45:14.190Z,9.9
2017-12-28T06:46:24.040Z,9.9
2017-12-28T06:47:26.583Z,9.8
2017-12-28T06:48:29.203Z,9.9
2017-12-28T06:49:31.856Z,9.9
2017-12-28T06:50:34.314Z,9.7
2017-12-28T06:51:36.754Z,10.1
2017-12-28T06:52:39.327Z,9.7
2017-12-28T06:53:41.908Z,9.5
2017-12-28T06:54:44.403Z,9.7
2017-12-28T06:55:46.950Z,9.9
2017-12-28T06:56:49.541Z,9.8
2017-12-28T06:57:52.258Z,9.7
2017-12-28T06:58:54.866Z,9.6
2017-12-28T06:59:57.555Z,9.6
2017-12-28T07:01:00.160Z,9.3
2017-12-28T07:02:02.733Z,9.4
2017-12-28T07:03:05.225Z,9.6
2017-12-28T07:04:07.859Z,9.9
2017-12-28T07:05:13.731Z,9.8
2017-12-28T07:06:16.346Z,10
2017-12-28T07:07:19.633Z,9.9
2017-12-28T07:08:22.145Z,10.2
2017-12-28T07:09:24.602Z,10.1
2017-12-28T07:10:27.052Z,10.3
2017-12-28T07:11:29.764Z,10.1
2017-12-28T07:12:32.323Z,10
2017-12-28T07:13:34.857Z,10.1
2017-12-28T07:14:37.348Z,10.1
2017-12-28T07:15:39.878Z,10
2017-12-28T07:16:42.650Z,9.4
2017-12-28T07:17:45.185Z,9.4
2017-12-28T07:18:47.730Z,9.4
2017-12-28T07:19:50.180Z,9.6
2017-12-28T07:20:52.636Z,9.7
2017-12-28T07:21:55.043Z,9.9
2017-12-28T07:22:57.500Z,9.8
2017-12-28T07:23:59.907Z,10
2017-12-28T07:25:02.434Z,9.8
2017-12-28T07:26:04.980Z,9.9
2017-12-28T07:27:07.543Z,10
2017-12-28T07:28:10.571Z,10
2017-12-28T07:29:13.105Z,10.2
2017-12-28T07:30:15.691Z,10.4
2017-12-28T07:31:18.282Z,10.1
2017-12-28T07:32:20.798Z,10.2
2017-12-28T07:33:23.416Z,10.1
2017-12-28T07:34:26.260Z,10
2017-12-28T07:35:28.641Z,10
2017-12-28T07:36:31.106Z,10
2017-12-28T07:37:33.601Z,10.2
2017-12-28T07:38:36.150Z,10.1
2017-12-28T07:39:38.665Z,9.8
2017-12-28T07:40:41.181Z,9.8
2017-12-28T07:41:43.708Z,10.1
2017-12-28T07:42:46.208Z,9.9
2017-12-28T07:43:48.756Z,9.9
2017-12-28T07:44:51.202Z,9.8
2017-12-28T07:45:53.770Z,9.9
2017-12-28T07:46:56.333Z,10.2
2017-12-28T07:47:59.082Z,10.2
2017-12-28T07:49:01.635Z,10
2017-12-28T07:50:04.173Z,9.9
2017-12-28T07:51:06.643Z,10
2017-12-28T07:52:09.155Z,10
2017-12-28T07:53:11.627Z,10
2017-12-28T07:54:14.066Z,9.9
2017-12-28T07:55:16.566Z,9.8
2017-12-28T07:56:19.014Z,10
2017-12-28T07:57:21.542Z,10.1
2017-12-28T07:58:24.830Z,10.1
2017-12-28T07:59:27.512Z,9.9
2017-12-28T08:00:30.114Z,9.7
2017-12-28T08:01:32.543Z,9.7
2017-12-28T08:02:35.021Z,9.7
2017-12-28T08:03:37.559Z,9.6
2017-12-28T08:04:40.060Z,9.4
2017-12-28T08:05:42.572Z,9.8
2017-12-28T08:06:45.034Z,9.7
2017-12-28T08:07:47.436Z,9.8
2017-12-28T08:08:49.945Z,9.6
2017-12-28T08:09:52.362Z,9.6
2017-12-28T08:10:54.822Z,10
2017-12-28T08:11:57.391Z,10
2017-12-28T08:12:59.863Z,9.9
2017-12-28T08:14:02.282Z,9.9
2017-12-28T08:15:04.714Z,9.8
2017-12-28T08:16:07.494Z,9.7
2017-12-28T08:17:09.954Z,9.7
2017-12-28T08:18:12.459Z,9.9
2017-12-28T08:19:14.955Z,10
2017-12-28T08:20:17.415Z,10.1
2017-12-28T08:21:19.909Z,9.8
2017-12-28T08:22:22.416Z,9.9
2017-12-28T08:23:24.871Z,10.1
2017-12-28T08:24:27.416Z,10.1
2017-12-28T08:25:29.939Z,9.8
2017-12-28T08:26:32.393Z,9.9
2017-12-28T08:27:34.947Z,9.4
2017-12-28T08:28:37.486Z,9.8
2017-12-28T08:29:40.011Z,9.7
2017-12-28T08:30:42.543Z,9.6
2017-12-28T08:31:50.706Z,9.7
2017-12-28T08:32:53.176Z,9.6
2017-12-28T08:33:55.558Z,10.1
2017-12-28T08:34:58.086Z,10.3
2017-12-28T08:36:00.618Z,9.9
2017-12-28T08:37:03.275Z,9.9
2017-12-28T08:38:06.627Z,10.1
2017-12-28T08:39:14.428Z,10.2
2017-12-28T08:40:17.424Z,10.1
2017-12-28T08:41:25.804Z,10.1
2017-12-28T08:42:28.276Z,9.7
2017-12-28T08:43:30.744Z,9.6
2017-12-28T08:44:33.212Z,9.7
2017-12-28T08:45:35.680Z,10
2017-12-28T08:46:38.306Z,10.8
2017-12-28T08:47:40.828Z,11.5
2017-12-28T08:48:43.339Z,12.2
2017-12-28T08:49:45.888Z,12.6
2017-12-28T08:50:48.468Z,12.7
2017-12-28T08:51:51.044Z,13
2017-12-28T08:52:53.597Z,13.1
2017-12-28T08:53:56.052Z,13.3
2017-12-28T08:54:58.515Z,13.3
2017-12-28T08:56:01.050Z,13.3
2017-12-28T08:57:03.505Z,13.4
2017-12-28T08:58:05.961Z,13.4
2017-12-28T08:59:08.480Z,13.7
2017-12-28T09:00:10.962Z,13.6
2017-12-28T09:01:13.435Z,13.7
2017-12-28T09:02:15.964Z,13.7
2017-12-28T09:03:18.415Z,13.8
2017-12-28T09:04:21.704Z,13.8
2017-12-28T09:05:24.196Z,13.7
2017-12-28T09:06:27.222Z,13.8
2017-12-28T09:07:29.923Z,13.8
2017-12-28T09:08:32.587Z,13.8
2017-12-28T09:09:35.784Z,13.8
2017-12-28T09:10:38.421Z,13.9
2017-12-28T09:11:40.958Z,13.9
2017-12-28T09:12:43.433Z,14.1
2017-12-28T09:13:45.966Z,14.2
2017-12-28T09:14:48.584Z,14.1
2017-12-28T09:15:51.055Z,14.2
2017-12-28T09:16:53.547Z,13.9
2017-12-28T09:17:56.158Z,14
2017-12-28T09:18:58.794Z,14
2017-12-28T09:20:02.063Z,14
2017-12-28T09:21:12.902Z,14.1
2017-12-28T09:22:16.027Z,14.2
2017-12-28T09:23:18.551Z,14.2
2017-12-28T09:24:21.353Z,14.4
2017-12-28T09:25:23.839Z,14.3
2017-12-28T09:26:26.317Z,14.3
2017-12-28T09:27:28.809Z,14.3
2017-12-28T09:28:31.309Z,14.6
2017-12-28T09:29:33.871Z,14.4
2017-12-28T09:30:36.431Z,14.3
2017-12-28T09:31:39.024Z,14.5
2017-12-28T09:32:41.493Z,14.4
2017-12-28T09:33:44.032Z,14.4
2017-12-28T09:34:46.609Z,14.6
2017-12-28T09:35:49.344Z,14.6
2017-12-28T09:36:52.159Z,14.8
2017-12-28T09:39:03.583Z,14.7
2017-12-28T09:40:06.157Z,14.5
2017-12-28T09:41:08.776Z,14.7
2017-12-28T09:42:11.374Z,14.8
2017-12-28T09:43:13.981Z,14.9
2017-12-28T09:44:16.449Z,14.8
2017-12-28T09:45:18.977Z,14.6
2017-12-28T09:46:21.536Z,14.7
2017-12-28T09:47:24.035Z,14.7
2017-12-28T09:48:26.494Z,14.6
2017-12-28T09:49:33.687Z,14.8
2017-12-28T09:50:36.199Z,14.8
2017-12-28T09:51:38.821Z,14.9
2017-12-28T09:52:41.357Z,14.8
2017-12-28T09:53:43.882Z,14.9
2017-12-28T09:54:46.364Z,15
2017-12-28T09:55:48.824Z,14.9
2017-12-28T09:56:51.274Z,14.9
2017-12-28T09:57:53.735Z,15.1
2017-12-28T09:58:56.159Z,15.1
2017-12-28T09:59:58.634Z,15.1
2017-12-28T10:01:01.090Z,15.2
2017-12-28T10:02:03.717Z,15.2
2017-12-28T10:03:06.220Z,15.1
2017-12-28T10:04:08.913Z,15.1
2017-12-28T10:05:11.429Z,15
2017-12-28T10:06:19.233Z,15.1
2017-12-28T10:07:22.070Z,15.2
2017-12-28T10:08:24.542Z,15.2
2017-12-28T10:09:27.144Z,15.3
2017-12-28T10:10:29.629Z,15.4
2017-12-28T10:11:32.111Z,15.3
2017-12-28T10:12:34.558Z,15.4
2017-12-28T10:13:37.087Z,15.4
2017-12-28T10:14:39.612Z,15.5
2017-12-28T10:15:42.405Z,15.3
2017-12-28T10:16:44.849Z,15.2
2017-12-28T10:17:47.389Z,15.2
2017-12-28T10:18:49.903Z,15.3
2017-12-28T10:19:52.527Z,15.4
2017-12-28T10:20:55.164Z,15.3
2017-12-28T10:21:57.742Z,15.4
2017-12-28T10:23:00.191Z,15.4
2017-12-28T10:24:02.742Z,15.4
2017-12-28T10:25:05.624Z,15.4
2017-12-28T10:26:08.227Z,15.6
2017-12-28T10:27:10.649Z,15.4
2017-12-28T10:29:30.135Z,15.7
2017-12-28T10:30:39.110Z,15.5
2017-12-28T10:31:41.582Z,15.4
2017-12-28T10:32:49.445Z,15.6
2017-12-28T10:33:54.960Z,15.5
2017-12-28T10:34:58.856Z,15.7
2017-12-28T10:36:01.345Z,15.6
2017-12-28T10:37:09.593Z,15.6
2017-12-28T10:38:12.150Z,15.6
2017-12-28T10:39:14.698Z,15.5
2017-12-28T10:40:17.263Z,15.6
2017-12-28T10:41:19.878Z,15.6
2017-12-28T10:42:22.325Z,15.8
2017-12-28T10:43:24.841Z,15.5
2017-12-28T10:44:27.390Z,15.6
2017-12-28T10:45:30.068Z,15.6
2017-12-28T10:46:32.682Z,15.8
2017-12-28T10:47:35.190Z,15.8
2017-12-28T10:48:37.682Z,15.8
2017-12-28T10:49:40.172Z,15.8
2017-12-28T10:50:55.381Z,15.8
2017-12-28T10:52:07.377Z,15.5
2017-12-28T10:53:24.379Z,15.8
2017-12-28T10:54:41.583Z,15.9
2017-12-28T10:56:02.586Z,15.8
2017-12-28T10:57:10.737Z,15.8
2017-12-28T10:58:38.197Z,16
2017-12-28T10:59:50.360Z,15.9
2017-12-28T11:01:00.888Z,16
2017-12-28T11:02:25.790Z,15.9
2017-12-28T11:03:32.074Z,16.1
2017-12-28T11:04:42.594Z,16
2017-12-28T11:05:57.518Z,15.8
2017-12-28T11:10:48.816Z,16.1
2017-12-28T11:11:56.322Z,16.1
2017-12-28T11:13:09.332Z,16
2017-12-28T11:14:27.011Z,15.9
2017-12-28T11:15:40.963Z,16
2017-12-28T11:16:53.381Z,16
2017-12-28T11:18:04.770Z,15.9
2017-12-28T11:19:13.492Z,15.8
2017-12-28T11:21:36.691Z,16
2017-12-28T11:24:06.262Z,16.2
2017-12-28T11:25:10.087Z,16.1
2017-12-28T11:26:16.963Z,16
2017-12-28T11:27:24.808Z,16
2017-12-28T11:29:48.830Z,16
2017-12-28T11:31:10.920Z,16.2
2017-12-28T11:33:46.837Z,16.4
2017-12-28T11:37:46.473Z,16.5
2017-12-28T11:38:54.560Z,16.4
2017-12-28T11:40:05.847Z,16.5
2017-12-28T11:41:14.643Z,16.6
2017-12-28T11:42:25.427Z,16.4
2017-12-28T11:43:35.368Z,16.3
2017-12-28T11:44:51.776Z,16.5
2017-12-28T11:45:57.983Z,16.3
2017-12-28T11:47:02.849Z,16.3
2017-12-28T11:48:13.207Z,16.5
2017-12-28T11:49:17.948Z,16.6
2017-12-28T11:50:21.898Z,16.4
2017-12-28T11:51:33.523Z,16.5
2017-12-28T11:52:51.345Z,16.4
2017-12-28T11:54:04.838Z,16.3
2017-12-28T11:55:09.892Z,16.4
2017-12-28T11:56:12.335Z,16.5
2017-12-28T11:57:14.758Z,16.5
2017-12-28T11:58:17.316Z,16.6
2017-12-28T11:59:20.032Z,16.4
2017-12-28T12:00:22.712Z,16.5
2017-12-28T12:01:25.369Z,16.6
2017-12-28T12:02:28.134Z,16.6
2017-12-28T12:03:30.746Z,16.6
2017-12-28T12:04:33.281Z,16.6
2017-12-28T12:05:35.872Z,16.7
2017-12-28T12:06:38.560Z,16.6
2017-12-28T12:07:41.233Z,16.7
2017-12-28T12:08:44.107Z,16.5
2017-12-28T12:09:46.858Z,16.3
2017-12-28T12:10:49.497Z,16.5
2017-12-28T12:11:56.821Z,16.5
2017-12-28T12:12:59.729Z,16.5
2017-12-28T12:14:02.235Z,16.7
2017-12-28T12:15:04.736Z,16.6
2017-12-28T12:16:07.287Z,16.5
2017-12-28T12:17:09.960Z,16.5
2017-12-28T12:18:12.530Z,16.4
2017-12-28T12:19:14.953Z,16.4
2017-12-28T12:20:18.035Z,16.3
2017-12-28T12:21:20.529Z,16.4
2017-12-28T12:22:23.076Z,16.4
2017-12-28T12:24:40.535Z,16.4
2017-12-28T12:25:42.945Z,16.4
2017-12-28T12:26:45.426Z,16.4
2017-12-28T12:27:47.960Z,16.4
2017-12-28T12:28:50.420Z,16.4
2017-12-28T12:29:53.616Z,16.5
2017-12-28T12:30:56.103Z,16.4
2017-12-28T12:31:58.626Z,16.5
2017-12-28T12:33:01.168Z,16.5
2017-12-28T12:34:03.638Z,16.5
2017-12-28T12:35:06.076Z,16.5
2017-12-28T12:36:08.645Z,16.3
2017-12-28T12:37:18.364Z,16.5
2017-12-28T12:38:20.899Z,16.5
2017-12-28T12:39:23.360Z,16.5
2017-12-28T12:40:25.856Z,16.5
2017-12-28T12:41:28.561Z,16.7
2017-12-28T12:42:30.995Z,16.7
2017-12-28T12:43:33.416Z,16.7
2017-12-28T12:44:35.951Z,16.8
2017-12-28T12:45:38.491Z,16.7
2017-12-28T12:46:40.984Z,16.8
2017-12-28T12:47:44.232Z,16.9
2017-12-28T12:48:46.848Z,16.8
2017-12-28T12:49:49.383Z,16.7
2017-12-28T12:50:51.818Z,16.5
2017-12-28T12:51:54.265Z,16.4
2017-12-28T12:52:56.885Z,16.5
2017-12-28T12:53:59.417Z,16.5
2017-12-28T12:55:02.211Z,16.7
2017-12-28T12:56:04.614Z,16.8
2017-12-28T12:57:07.924Z,16.8
2017-12-28T12:58:10.414Z,16.9
2017-12-28T12:59:12.859Z,16.9
2017-12-28T13:00:15.806Z,16.9
2017-12-28T13:01:18.340Z,16.9
2017-12-28T13:02:20.961Z,16.7
2017-12-28T13:03:23.553Z,16.9
2017-12-28T13:04:26.060Z,17
2017-12-28T13:05:28.721Z,17.1
2017-12-28T13:06:31.282Z,17.1
2017-12-28T13:07:34.007Z,17
2017-12-28T13:08:36.464Z,17
2017-12-28T13:09:39.070Z,17
2017-12-28T13:10:41.562Z,16.8
2017-12-28T13:11:44.030Z,17
2017-12-28T13:12:46.470Z,16.9
2017-12-28T13:13:48.935Z,16.9
2017-12-28T13:14:51.577Z,16.9
2017-12-28T13:15:53.991Z,16.9
2017-12-28T13:16:56.417Z,16.8
2017-12-28T13:17:59.005Z,16.9
2017-12-28T13:19:01.552Z,17
2017-12-28T13:20:04.112Z,17.1
2017-12-28T13:21:06.541Z,17
2017-12-28T13:22:09.042Z,17.1
2017-12-28T13:23:12.004Z,17.1
2017-12-28T13:24:14.646Z,17.1
2017-12-28T13:25:17.350Z,17
2017-12-28T13:26:19.922Z,16.9
2017-12-28T13:27:22.475Z,17
2017-12-28T13:28:24.939Z,17
2017-12-28T13:29:27.418Z,17
2017-12-28T13:30:29.950Z,17
2017-12-28T13:31:32.414Z,17
2017-12-28T13:32:34.919Z,17
2017-12-28T13:33:37.413Z,17
2017-12-28T13:34:39.984Z,16.9
2017-12-28T13:35:42.553Z,16.7
2017-12-28T13:36:44.996Z,17
2017-12-28T13:37:47.529Z,17.1
2017-12-28T13:38:50.098Z,16.8
2017-12-28T13:39:52.566Z,16.8
2017-12-28T13:40:55.026Z,16.8
2017-12-28T13:41:57.474Z,16.9
2017-12-28T13:43:00.107Z,16.9
2017-12-28T13:44:02.616Z,16.8
2017-12-28T13:45:05.263Z,16.8
2017-12-28T13:46:07.854Z,16.8
2017-12-28T13:47:10.566Z,16.7
2017-12-28T13:48:13.086Z,16.9
2017-12-28T13:49:15.740Z,16.8
2017-12-28T13:50:18.371Z,16.8
2017-12-28T13:51:21.411Z,16.7
2017-12-28T13:52:23.914Z,16.7
2017-12-28T13:53:26.438Z,16.7
2017-12-28T13:54:28.972Z,16.8
2017-12-28T13:55:31.515Z,16.9
2017-12-28T13:56:34.012Z,16.9
2017-12-28T13:57:36.477Z,16.9
2017-12-28T13:58:39.177Z,16.9
2017-12-28T13:59:41.731Z,16.8
2017-12-28T14:00:44.178Z,16.8
2017-12-28T14:01:46.614Z,16.8
2017-12-28T14:02:49.035Z,16.8
2017-12-28T14:03:51.478Z,16.9
2017-12-28T14:04:53.982Z,16.9
2017-12-28T14:05:56.707Z,16.7
2017-12-28T14:06:59.229Z,16.7
2017-12-28T14:08:01.738Z,16.8
2017-12-28T14:09:04.195Z,16.8
2017-12-28T14:10:06.749Z,16.8
2017-12-28T14:11:09.308Z,16.9
2017-12-28T14:12:11.846Z,16.9
2017-12-28T14:13:14.374Z,16.9
2017-12-28T14:14:16.932Z,17
2017-12-28T14:15:19.591Z,17
2017-12-28T14:16:22.116Z,16.9
2017-12-28T14:17:24.701Z,16.8
2017-12-28T14:18:27.396Z,16.9
2017-12-28T14:19:30.063Z,16.8
2017-12-28T14:20:32.583Z,16.7
2017-12-28T14:21:35.062Z,16.6
2017-12-28T14:22:39.416Z,16.9
2017-12-28T14:23:42.030Z,16.9
2017-12-28T14:24:44.509Z,16.8
2017-12-28T14:25:47.021Z,16.8
2017-12-28T14:26:49.536Z,16.8
2017-12-28T14:27:52.583Z,16.8
2017-12-28T14:28:55.019Z,16.8
2017-12-28T14:29:57.489Z,16.9
2017-12-28T14:31:00.136Z,16.8
2017-12-28T14:32:07.428Z,16.7